sensor_id;sensor_type;location;lat;lon;timestamp;temperature;humidity
54946;DHT22;40846;44.788;20.486;2023-05-07T00:00:36;410.40;2355.20
54946;DHT22;40846;44.788;20.486;2023-05-07T00:03:02;410.40;2355.20
54946;DHT22;40846;44.788;20.486;2023-05-07T00:05:28;410.40;2355.20
54946;DHT22;40846;44.788;20.486;2023-05-07T00:07:53;410.40;2355.20
54946;DHT22;40846;44.788;20.486;2023-05-07T00:10:19;410.40;2355.20
54946;DHT22;40846;44.788;20.486;2023-05-07T00:12:45;410.30;2355.20
54946;DHT22;40846;44.788;20.486;2023-05-07T00:15:11;410.40;2355.20
54946;DHT22;40846;44.788;20.486;2023-05-07T05:17:52;435.60;2355.20
54946;DHT22;40846;44.788;20.486;2023-05-07T05:20:17;435.40;2355.20
54946;DHT22;40846;44.788;20.486;2023-05-07T05:22:43;435.40;2355.20
54946;DHT22;40846;44.788;20.486;2023-05-07T06:04:08;461.60;2380.80
54946;DHT22;40846;44.788;20.486;2023-05-07T06:06:33;461.50;2380.80
54946;DHT22;40846;44.788;20.486;2023-05-07T06:18:43;486.90;2380.80
54946;DHT22;40846;44.788;20.486;2023-05-07T06:43:24;512.20;2380.80
54946;DHT22;40846;44.788;20.486;2023-05-07T06:45:50;487.30;2380.80
54946;DHT22;40846;44.788;20.486;2023-05-07T06:48:15;487.30;2380.80
54946;DHT22;40846;44.788;20.486;2023-05-07T06:50:42;512.10;2380.80
54946;DHT22;40846;44.788;20.486;2023-05-07T06:53:08;512.30;2380.80
54946;DHT22;40846;44.788;20.486;2023-05-07T06:55:33;512.50;2380.80
54946;DHT22;40846;44.788;20.486;2023-05-07T06:57:59;512.50;2380.80
54946;DHT22;40846;44.788;20.486;2023-05-07T07:00:27;512.50;2380.80
54946;DHT22;40846;44.788;20.486;2023-05-07T07:02:56;512.60;2380.80
54946;DHT22;40846;44.788;20.486;2023-05-07T07:05:21;512.60;2380.80
54946;DHT22;40846;44.788;20.486;2023-05-07T07:07:47;537.60;2406.40
54946;DHT22;40846;44.788;20.486;2023-05-07T07:12:47;538.10;2406.40
54946;DHT22;40846;44.788;20.486;2023-05-07T07:15:13;538.00;2329.60
54946;DHT22;40846;44.788;20.486;2023-05-07T07:20:06;538.30;2304.00
54946;DHT22;40846;44.788;20.486;2023-05-07T07:22:32;538.20;2406.40
54946;DHT22;40846;44.788;20.486;2023-05-07T07:24:58;538.20;2227.20
54946;DHT22;40846;44.788;20.486;2023-05-07T07:27:23;538.30;2201.60
54946;DHT22;40846;44.788;20.486;2023-05-07T07:32:15;563.50;2124.80
54946;DHT22;40846;44.788;20.486;2023-05-07T07:34:41;563.30;2099.20
54946;DHT22;40846;44.788;20.486;2023-05-07T07:37:07;563.40;2099.20
54946;DHT22;40846;44.788;20.486;2023-05-07T07:39:33;563.20;2073.60
54946;DHT22;40846;44.788;20.486;2023-05-07T07:41:58;563.20;2073.60
54946;DHT22;40846;44.788;20.486;2023-05-07T07:44:25;563.20;2099.20
54946;DHT22;40846;44.788;20.486;2023-05-07T07:46:50;563.30;2073.60
54946;DHT22;40846;44.788;20.486;2023-05-07T07:49:16;563.80;2073.60
54946;DHT22;40846;44.788;20.486;2023-05-07T07:51:42;564.00;2022.40
54946;DHT22;40846;44.788;20.486;2023-05-07T07:54:08;564.10;2022.40
54946;DHT22;40846;44.788;20.486;2023-05-07T07:56:34;588.80;1971.20
54946;DHT22;40846;44.788;20.486;2023-05-07T07:59:00;588.90;1971.20
54946;DHT22;40846;44.788;20.486;2023-05-07T08:01:26;588.90;1945.60
54946;DHT22;40846;44.788;20.486;2023-05-07T08:03:52;589.10;1920.00
54946;DHT22;40846;44.788;20.486;2023-05-07T08:06:18;589.20;1894.40
54946;DHT22;40846;44.788;20.486;2023-05-07T08:23:21;615.10;1715.20
54946;DHT22;40846;44.788;20.486;2023-05-07T08:25:48;614.90;1715.20
54946;DHT22;40846;44.788;20.486;2023-05-07T08:30:41;640.10;1638.40
54946;DHT22;40846;44.788;20.486;2023-05-07T08:33:08;615.10;1664.00
54946;DHT22;40846;44.788;20.486;2023-05-07T08:35:35;615.00;1664.00
54946;DHT22;40846;44.788;20.486;2023-05-07T08:38:00;615.00;1638.40
54946;DHT22;40846;44.788;20.486;2023-05-07T08:40:26;615.00;1664.00
54946;DHT22;40846;44.788;20.486;2023-05-07T08:42:56;640.10;1638.40
54946;DHT22;40846;44.788;20.486;2023-05-07T08:50:20;640.40;1587.20
54946;DHT22;40846;44.788;20.486;2023-05-07T08:55:13;640.70;1561.60
54946;DHT22;40846;44.788;20.486;2023-05-07T09:32:04;666.30;1484.80
54946;DHT22;40846;44.788;20.486;2023-05-07T10:11:34;691.80;1408.00
54946;DHT22;40846;44.788;20.486;2023-05-07T10:33:42;716.80;1382.40
54946;DHT22;40846;44.788;20.486;2023-05-07T10:36:10;691.80;1382.40
54946;DHT22;40846;44.788;20.486;2023-05-07T10:38:36;691.80;1356.80
54946;DHT22;40846;44.788;20.486;2023-05-07T10:41:02;691.70;1356.80
54946;DHT22;40846;44.788;20.486;2023-05-07T11:49:54;692.10;1280.00
54946;DHT22;40846;44.788;20.486;2023-05-07T11:52:22;691.90;1280.00
54946;DHT22;40846;44.788;20.486;2023-05-07T11:54:58;691.80;1228.80
54946;DHT22;40846;44.788;20.486;2023-05-07T11:57:26;691.60;1228.80
54946;DHT22;40846;44.788;20.486;2023-05-07T11:59:58;691.80;1228.80
54946;DHT22;40846;44.788;20.486;2023-05-07T12:02:25;691.60;1228.80
54946;DHT22;40846;44.788;20.486;2023-05-07T12:04:54;691.70;1228.80
54946;DHT22;40846;44.788;20.486;2023-05-07T12:07:20;691.70;1228.80
54946;DHT22;40846;44.788;20.486;2023-05-07T12:09:47;691.70;1228.80
54946;DHT22;40846;44.788;20.486;2023-05-07T12:12:13;691.70;1228.80
54946;DHT22;40846;44.788;20.486;2023-05-07T12:14:44;691.50;1228.80
54946;DHT22;40846;44.788;20.486;2023-05-07T12:24:30;692.00;1203.20
54946;DHT22;40846;44.788;20.486;2023-05-07T12:27:06;691.80;1254.40
54946;DHT22;40846;44.788;20.486;2023-05-07T12:29:32;691.90;1203.20
54946;DHT22;40846;44.788;20.486;2023-05-07T12:31:58;691.90;1203.20
54946;DHT22;40846;44.788;20.486;2023-05-07T12:34:24;691.80;1203.20
54946;DHT22;40846;44.788;20.486;2023-05-07T12:36:50;691.60;1203.20
54946;DHT22;40846;44.788;20.486;2023-05-07T12:39:15;691.60;1203.20
54946;DHT22;40846;44.788;20.486;2023-05-07T12:41:58;691.80;1203.20
54946;DHT22;40846;44.788;20.486;2023-05-07T12:44:26;691.80;1203.20
54946;DHT22;40846;44.788;20.486;2023-05-07T12:46:54;691.60;1203.20
54946;DHT22;40846;44.788;20.486;2023-05-07T12:49:20;691.60;1203.20
54946;DHT22;40846;44.788;20.486;2023-05-07T12:51:49;691.60;1203.20
54946;DHT22;40846;44.788;20.486;2023-05-07T12:59:41;692.00;1203.20
54946;DHT22;40846;44.788;20.486;2023-05-07T13:02:07;691.60;1203.20
54946;DHT22;40846;44.788;20.486;2023-05-07T13:04:33;691.70;1203.20
54946;DHT22;40846;44.788;20.486;2023-05-07T13:07:00;691.60;1203.20
54946;DHT22;40846;44.788;20.486;2023-05-07T13:09:26;691.60;1177.60
54946;DHT22;40846;44.788;20.486;2023-05-07T13:11:52;691.60;1177.60
54946;DHT22;40846;44.788;20.486;2023-05-07T13:14:17;691.60;1177.60
54946;DHT22;40846;44.788;20.486;2023-05-07T13:16:45;691.60;1203.20
54946;DHT22;40846;44.788;20.486;2023-05-07T13:19:11;691.60;1177.60
54946;DHT22;40846;44.788;20.486;2023-05-07T13:21:36;691.70;1177.60
54946;DHT22;40846;44.788;20.486;2023-05-07T13:24:02;691.60;1203.20
54946;DHT22;40846;44.788;20.486;2023-05-07T13:26:30;691.50;1177.60
54946;DHT22;40846;44.788;20.486;2023-05-07T13:28:56;691.50;1152.00
54946;DHT22;40846;44.788;20.486;2023-05-07T13:31:23;691.50;1152.00
54946;DHT22;40846;44.788;20.486;2023-05-07T13:33:48;691.60;1177.60
54946;DHT22;40846;44.788;20.486;2023-05-07T13:36:14;691.60;1177.60
54946;DHT22;40846;44.788;20.486;2023-05-07T13:38:40;691.60;1177.60
54946;DHT22;40846;44.788;20.486;2023-05-07T13:41:06;691.60;1177.60
54946;DHT22;40846;44.788;20.486;2023-05-07T13:43:31;691.60;1177.60
54946;DHT22;40846;44.788;20.486;2023-05-07T13:45:59;691.60;1203.20
54946;DHT22;40846;44.788;20.486;2023-05-07T13:48:25;691.60;1203.20
54946;DHT22;40846;44.788;20.486;2023-05-07T13:50:51;691.50;1203.20
54946;DHT22;40846;44.788;20.486;2023-05-07T13:53:17;691.60;1177.60
54946;DHT22;40846;44.788;20.486;2023-05-07T13:55:44;691.50;1177.60
54946;DHT22;40846;44.788;20.486;2023-05-07T14:39:36;691.60;1203.20
54946;DHT22;40846;44.788;20.486;2023-05-07T14:42:02;691.40;1228.80
54946;DHT22;40846;44.788;20.486;2023-05-07T14:44:28;691.40;1203.20
54946;DHT22;40846;44.788;20.486;2023-05-07T14:46:54;691.40;1228.80
54946;DHT22;40846;44.788;20.486;2023-05-07T14:49:20;691.30;1254.40
54946;DHT22;40846;44.788;20.486;2023-05-07T14:51:46;691.30;1254.40
54946;DHT22;40846;44.788;20.486;2023-05-07T14:54:13;691.40;1228.80
54946;DHT22;40846;44.788;20.486;2023-05-07T14:56:39;691.30;1228.80
54946;DHT22;40846;44.788;20.486;2023-05-07T14:59:06;691.30;1228.80
54946;DHT22;40846;44.788;20.486;2023-05-07T15:01:32;691.30;1228.80
54946;DHT22;40846;44.788;20.486;2023-05-07T15:03:58;691.30;1228.80
54946;DHT22;40846;44.788;20.486;2023-05-07T15:06:23;691.40;1228.80
54946;DHT22;40846;44.788;20.486;2023-05-07T15:08:49;691.30;1203.20
54946;DHT22;40846;44.788;20.486;2023-05-07T15:11:15;691.30;1203.20
54946;DHT22;40846;44.788;20.486;2023-05-07T15:13:42;691.40;1177.60
54946;DHT22;40846;44.788;20.486;2023-05-07T15:16:07;691.30;1203.20
54946;DHT22;40846;44.788;20.486;2023-05-07T15:18:33;691.30;1203.20
54946;DHT22;40846;44.788;20.486;2023-05-07T15:20:59;691.40;1228.80
54946;DHT22;40846;44.788;20.486;2023-05-07T15:23:25;691.30;1228.80
54946;DHT22;40846;44.788;20.486;2023-05-07T15:25:52;691.30;1228.80
54946;DHT22;40846;44.788;20.486;2023-05-07T15:28:18;691.30;1228.80
54946;DHT22;40846;44.788;20.486;2023-05-07T15:40:29;691.30;1254.40
54946;DHT22;40846;44.788;20.486;2023-05-07T15:45:22;691.30;1228.80
54946;DHT22;40846;44.788;20.486;2023-05-07T15:47:49;691.30;1254.40
54946;DHT22;40846;44.788;20.486;2023-05-07T15:50:14;666.40;1228.80
54946;DHT22;40846;44.788;20.486;2023-05-07T15:52:40;666.40;1228.80
54946;DHT22;40846;44.788;20.486;2023-05-07T15:57:34;691.30;1203.20
54946;DHT22;40846;44.788;20.486;2023-05-07T16:00:00;666.40;1203.20
54946;DHT22;40846;44.788;20.486;2023-05-07T16:02:26;666.30;1203.20
54946;DHT22;40846;44.788;20.486;2023-05-07T16:04:51;666.40;1203.20
54946;DHT22;40846;44.788;20.486;2023-05-07T16:07:17;666.30;1203.20
54946;DHT22;40846;44.788;20.486;2023-05-07T17:13:12;665.70;1280.00
54946;DHT22;40846;44.788;20.486;2023-05-07T17:15:37;640.80;1280.00
54946;DHT22;40846;44.788;20.486;2023-05-07T17:59:30;640.40;1356.80
54946;DHT22;40846;44.788;20.486;2023-05-07T19:02:54;589.50;1561.60
54946;DHT22;40846;44.788;20.486;2023-05-07T19:05:20;589.30;1536.00
54946;DHT22;40846;44.788;20.486;2023-05-07T19:07:45;589.10;1587.20
54946;DHT22;40846;44.788;20.486;2023-05-07T19:10:12;589.00;1612.80
54946;DHT22;40846;44.788;20.486;2023-05-07T19:19:57;564.10;1664.00
54946;DHT22;40846;44.788;20.486;2023-05-07T19:22:23;563.80;1689.60
54946;DHT22;40846;44.788;20.486;2023-05-07T19:24:49;563.70;1715.20
54946;DHT22;40846;44.788;20.486;2023-05-07T19:27:15;563.60;1740.80
54946;DHT22;40846;44.788;20.486;2023-05-07T19:29:42;563.60;1715.20
54946;DHT22;40846;44.788;20.486;2023-05-07T19:32:07;563.60;1740.80
54946;DHT22;40846;44.788;20.486;2023-05-07T19:34:36;563.60;1740.80
54946;DHT22;40846;44.788;20.486;2023-05-07T19:37:02;563.70;1740.80
54946;DHT22;40846;44.788;20.486;2023-05-07T19:39:28;563.70;1740.80
54946;DHT22;40846;44.788;20.486;2023-05-07T19:41:54;563.80;1664.00
54946;DHT22;40846;44.788;20.486;2023-05-07T19:44:20;563.80;1638.40
54946;DHT22;40846;44.788;20.486;2023-05-07T19:46:46;563.80;1612.80
54946;DHT22;40846;44.788;20.486;2023-05-07T19:49:12;563.80;1612.80
54946;DHT22;40846;44.788;20.486;2023-05-07T19:51:38;563.80;1638.40
54946;DHT22;40846;44.788;20.486;2023-05-07T19:54:04;563.80;1638.40
54946;DHT22;40846;44.788;20.486;2023-05-07T19:56:30;563.70;1664.00
54946;DHT22;40846;44.788;20.486;2023-05-07T19:58:55;563.70;1689.60
54946;DHT22;40846;44.788;20.486;2023-05-07T20:01:21;563.70;1689.60
54946;DHT22;40846;44.788;20.486;2023-05-07T20:03:47;563.60;1715.20
54946;DHT22;40846;44.788;20.486;2023-05-07T20:06:12;563.60;1740.80
54946;DHT22;40846;44.788;20.486;2023-05-07T20:08:39;563.50;1740.80
54946;DHT22;40846;44.788;20.486;2023-05-07T20:11:07;563.60;1766.40
54946;DHT22;40846;44.788;20.486;2023-05-07T20:13:34;563.50;1766.40
54946;DHT22;40846;44.788;20.486;2023-05-07T20:16:00;563.50;1792.00
54946;DHT22;40846;44.788;20.486;2023-05-07T20:18:27;563.40;1792.00
54946;DHT22;40846;44.788;20.486;2023-05-07T20:20:53;563.40;1817.60
54946;DHT22;40846;44.788;20.486;2023-05-07T20:23:19;563.30;1843.20
54946;DHT22;40846;44.788;20.486;2023-05-07T20:25:48;563.30;1843.20
54946;DHT22;40846;44.788;20.486;2023-05-07T20:28:17;563.20;1868.80
54946;DHT22;40846;44.788;20.486;2023-05-07T20:30:43;538.50;1843.20
54946;DHT22;40846;44.788;20.486;2023-05-07T20:45:21;563.30;1945.60
54946;DHT22;40846;44.788;20.486;2023-05-07T20:47:47;538.30;1945.60
54946;DHT22;40846;44.788;20.486;2023-05-07T20:50:12;538.30;1945.60
54946;DHT22;40846;44.788;20.486;2023-05-07T20:52:38;538.30;1996.80
54946;DHT22;40846;44.788;20.486;2023-05-07T21:04:49;538.30;2073.60
54946;DHT22;40846;44.788;20.486;2023-05-07T21:09:42;537.80;2176.00
54946;DHT22;40846;44.788;20.486;2023-05-07T21:12:08;537.70;2201.60
54946;DHT22;40846;44.788;20.486;2023-05-07T21:38:59;538.10;2355.20
54946;DHT22;40846;44.788;20.486;2023-05-07T21:41:25;537.80;2380.80
54946;DHT22;40846;44.788;20.486;2023-05-07T21:43:52;537.70;2380.80
54946;DHT22;40846;44.788;20.486;2023-05-07T21:46:18;537.80;2406.40
54946;DHT22;40846;44.788;20.486;2023-05-07T21:48:44;537.70;2406.40
54946;DHT22;40846;44.788;20.486;2023-05-07T22:00:56;537.90;2406.40
54946;DHT22;40846;44.788;20.486;2023-05-07T22:03:22;537.60;2406.40
54946;DHT22;40846;44.788;20.486;2023-05-07T22:05:48;512.90;2380.80
54946;DHT22;40846;44.788;20.486;2023-05-07T22:08:13;512.90;2380.80
54946;DHT22;40846;44.788;20.486;2023-05-07T22:10:39;512.90;2380.80
54946;DHT22;40846;44.788;20.486;2023-05-07T22:13:05;512.90;2380.80
54946;DHT22;40846;44.788;20.486;2023-05-07T22:15:31;537.60;2406.40
54946;DHT22;40846;44.788;20.486;2023-05-07T22:17:57;537.70;2406.40
54946;DHT22;40846;44.788;20.486;2023-05-07T22:20:23;537.70;2406.40
54946;DHT22;40846;44.788;20.486;2023-05-07T22:22:50;537.60;2406.40
54946;DHT22;40846;44.788;20.486;2023-05-07T22:25:16;512.90;2380.80
54946;DHT22;40846;44.788;20.486;2023-05-07T22:27:42;512.90;2380.80
54946;DHT22;40846;44.788;20.486;2023-05-07T22:30:08;537.60;2406.40
54946;DHT22;40846;44.788;20.486;2023-05-07T22:32:34;512.90;2380.80
54946;DHT22;40846;44.788;20.486;2023-05-07T22:35:01;537.60;2406.40
54946;DHT22;40846;44.788;20.486;2023-05-07T22:37:27;537.60;2406.40
54946;DHT22;40846;44.788;20.486;2023-05-07T22:39:53;537.60;2406.40
54946;DHT22;40846;44.788;20.486;2023-05-07T22:42:18;537.60;2406.40
54946;DHT22;40846;44.788;20.486;2023-05-07T22:44:44;537.70;2406.40
54946;DHT22;40846;44.788;20.486;2023-05-07T22:47:10;537.90;2406.40
54946;DHT22;40846;44.788;20.486;2023-05-07T22:49:36;537.70;2406.40
54946;DHT22;40846;44.788;20.486;2023-05-07T22:52:02;537.60;2406.40
54946;DHT22;40846;44.788;20.486;2023-05-07T22:54:30;537.60;2406.40
54946;DHT22;40846;44.788;20.486;2023-05-07T22:56:56;537.60;2406.40
54946;DHT22;40846;44.788;20.486;2023-05-07T22:59:23;537.70;2406.40
54946;DHT22;40846;44.788;20.486;2023-05-07T23:01:49;537.80;2406.40
54946;DHT22;40846;44.788;20.486;2023-05-07T23:04:15;537.70;2406.40
54946;DHT22;40846;44.788;20.486;2023-05-07T23:06:41;537.60;2406.40
54946;DHT22;40846;44.788;20.486;2023-05-07T23:09:07;537.70;2406.40
54946;DHT22;40846;44.788;20.486;2023-05-07T23:11:33;537.60;2406.40
54946;DHT22;40846;44.788;20.486;2023-05-07T23:13:59;512.90;2380.80
54946;DHT22;40846;44.788;20.486;2023-05-07T23:16:25;537.60;2406.40
54946;DHT22;40846;44.788;20.486;2023-05-07T23:18:53;537.60;2406.40
54946;DHT22;40846;44.788;20.486;2023-05-07T23:21:19;537.60;2406.40
54946;DHT22;40846;44.788;20.486;2023-05-07T23:23:44;512.90;2380.80
54946;DHT22;40846;44.788;20.486;2023-05-07T23:26:15;512.80;2380.80
54946;DHT22;40846;44.788;20.486;2023-05-07T23:28:40;512.80;2380.80
54946;DHT22;40846;44.788;20.486;2023-05-07T23:31:07;512.80;2380.80
54946;DHT22;40846;44.788;20.486;2023-05-07T23:33:33;512.80;2380.80
54946;DHT22;40846;44.788;20.486;2023-05-07T23:35:59;512.80;2380.80
54946;DHT22;40846;44.788;20.486;2023-05-07T23:38:25;512.80;2380.80
54946;DHT22;40846;44.788;20.486;2023-05-07T23:40:52;512.80;2380.80
54946;DHT22;40846;44.788;20.486;2023-05-07T23:43:19;512.70;2380.80
54946;DHT22;40846;44.788;20.486;2023-05-07T23:45:45;512.90;2380.80
54946;DHT22;40846;44.788;20.486;2023-05-07T23:48:11;512.90;2380.80
54946;DHT22;40846;44.788;20.486;2023-05-07T23:50:36;537.60;2406.40
54946;DHT22;40846;44.788;20.486;2023-05-07T23:53:02;512.80;2380.80
54946;DHT22;40846;44.788;20.486;2023-05-07T23:55:28;512.70;2380.80
54946;DHT22;40846;44.788;20.486;2023-05-07T23:57:54;512.80;2380.80
